Time;durP1;ratioP1;P1;durP2;ratioP2;P2;SDS_P1;SDS_P2;PMS_P1;PMS_P2;Temp;Humidity;BMP_temperature;BMP_pressure;BME280_temperature;BME280_humidity;BME280_pressure;Samples;Min_cycle;Max_cycle;Signal;HPM_P1;HPM_P2
2022/05/03 00:01:29;;;;;;;3.27;1.60;;;16.50;99.90;;;;;;20867734;28;20221;-81
2022/05/03 00:11:39;;;;;;;2.17;1.70;;;;;;;;;;20880712;28;20825;-82
2022/05/03 00:21:41;;;;;;;5.00;1.83;;;16.20;99.90;;;;;;20863464;28;20229;-82
2022/05/03 00:31:44;;;;;;;2.30;1.70;;;;;;;;;;20895586;28;20210;-82
2022/05/03 00:41:49;;;;;;;2.93;1.80;;;;;;;;;;20907720;28;20221;-81
2022/05/03 00:51:57;;;;;;;2.33;1.60;;;;;;;;;;20959719;28;20221;-82
2022/05/03 01:02:06;;;;;;;2.50;2.00;;;16.00;99.90;;;;;;20942039;28;20220;-81
2022/05/03 01:12:24;;;;;;;3.30;1.90;;;15.90;99.90;;;;;;20941682;28;20213;-82
2022/05/03 01:22:26;;;;;;;2.53;1.97;;;;;;;;;;20957940;28;20251;-82
2022/05/03 01:32:31;;;;;;;2.57;1.97;;;;;;;;;;20959390;28;20251;-82
2022/05/03 01:42:33;;;;;;;4.40;2.17;;;;;;;;;;20974876;28;20224;-83
2022/05/03 01:52:35;;;;;;;4.70;2.50;;;;;;;;;;20877819;28;20789;-81
2022/05/03 02:03:14;;;;;;;3.47;1.70;;;15.40;99.90;;;;;;20874087;28;20255;-82
2022/05/03 02:13:28;;;;;;;2.70;1.97;;;;;;;;;;20873988;28;20271;-82
2022/05/03 02:23:29;;;;;;;2.27;1.60;;;;;;;;;;20858850;28;20221;-82
2022/05/03 02:33:50;;;;;;;3.00;1.90;;;15.40;99.90;;;;;;20867177;28;20236;-82
2022/05/03 02:43:53;;;;;;;2.50;1.67;;;;;;;;;;20898495;28;20621;-83
2022/05/03 02:54:02;;;;;;;2.47;2.00;;;;;;;;;;20982602;28;20287;-82
2022/05/03 03:04:20;;;;;;;2.73;1.97;;;15.20;99.90;;;;;;20986223;28;20225;-82
2022/05/03 03:14:43;;;;;;;3.07;1.83;;;;;;;;;;20950468;28;20210;-81
2022/05/03 03:24:47;;;;;;;3.07;2.00;;;;;;;;;;20949303;28;20706;-82
2022/05/03 03:34:50;;;;;;;3.03;2.10;;;15.00;99.90;;;;;;20965093;28;20274;-82
2022/05/03 03:44:53;;;;;;;2.80;1.90;;;;;;;;;;20963317;28;20241;-80
2022/05/03 03:54:55;;;;;;;2.90;2.10;;;14.40;99.90;;;;;;20946583;28;20217;-82
2022/05/03 04:04:57;;;;;;;2.17;1.77;;;;;;;;;;20963235;28;20221;-82
2022/05/03 04:14:59;;;;;;;2.93;1.60;;;;;;;;;;20969937;28;20217;-82
2022/05/03 04:25:01;;;;;;;3.00;2.07;;;;;;;;;;20959917;28;20221;-84
2022/05/03 04:35:04;;;;;;;2.03;1.70;;;;;;;;;;20992422;28;20752;-82
2022/05/03 04:45:06;;;;;;;3.37;1.90;;;;;;;;;;20939233;28;20303;-81
2022/05/03 04:55:09;;;;;;;2.20;1.77;;;;;;;;;;21059698;28;20217;-82
2022/05/03 05:05:10;;;;;;;2.60;2.00;;;;;;;;;;21002556;28;20252;-81
2022/05/03 05:15:13;;;;;;;4.10;2.10;;;;;;;;;;20618555;23;20278;-68
2022/05/03 05:25:15;;;;;;;3.03;1.90;;;15.10;99.90;;;;;;20519148;28;20282;-68
2022/05/03 05:35:17;;;;;;;2.57;2.07;;;;;;;;;;20518153;28;20185;-69
2022/05/03 05:45:19;;;;;;;5.30;2.20;;;;;;;;;;20594967;28;20276;-69
2022/05/03 05:55:21;;;;;;;2.27;1.70;;;;;;;;;;20602925;28;20243;-68
2022/05/03 06:05:22;;;;;;;3.23;2.40;;;;;;;;;;20787637;28;20295;-68
2022/05/03 06:15:24;;;;;;;2.93;2.20;;;;;;;;;;20804817;28;20229;-69
2022/05/03 06:25:26;;;;;;;2.23;1.80;;;;;;;;;;20895389;28;20229;-69
2022/05/03 06:35:28;;;;;;;2.70;1.80;;;;;;;;;;20821974;28;20270;-69
2022/05/03 06:45:30;;;;;;;2.53;2.07;;;;;;;;;;20949512;28;20243;-69
2022/05/03 06:55:32;;;;;;;3.93;1.93;;;;;;;;;;20766190;28;20653;-69
2022/05/03 07:05:34;;;;;;;3.13;2.10;;;;;;;;;;20662119;28;20992;-69
2022/05/03 07:15:36;;;;;;;3.37;2.40;;;;;;;;;;20837066;28;20277;-69
2022/05/03 07:25:38;;;;;;;2.43;1.80;;;17.60;99.90;;;;;;20796755;28;20216;-68
2022/05/03 07:35:40;;;;;;;2.70;1.93;;;;;;;;;;20503536;28;20209;-69
2022/05/03 07:45:42;;;;;;;3.13;2.37;;;;;;;;;;20478562;28;20279;-69
2022/05/03 07:55:48;;;;;;;3.60;2.07;;;18.70;99.90;;;;;;20644067;28;20208;-69
2022/05/03 08:05:50;;;;;;;3.43;1.90;;;;;;;;;;20841162;28;20275;-69
2022/05/03 08:15:52;;;;;;;2.67;2.00;;;;;;;;;;20942240;28;20593;-68
2022/05/03 08:25:54;;;;;;;3.20;2.10;;;;;;;;;;20941718;28;20225;-69
2022/05/03 08:35:56;;;;;;;3.47;2.10;;;;;;;;;;20957031;28;20221;-68
2022/05/03 08:45:58;;;;;;;2.80;2.17;;;;;;;;;;20940552;28;20251;-68
2022/05/03 08:56:00;;;;;;;2.67;1.83;;;;;;;;;;20938951;28;20267;-68
2022/05/03 09:06:03;;;;;;;2.77;1.97;;;;;;;;;;20938744;28;20339;-69
2022/05/03 09:16:12;;;;;;;2.43;1.90;;;20.40;99.90;;;;;;20827396;28;20720;-69
2022/05/03 09:26:15;;;;;;;3.10;2.20;;;20.60;99.90;;;;;;20744972;28;20288;-69
2022/05/03 09:36:17;;;;;;;3.17;2.20;;;21.00;99.90;;;;;;20949172;28;20210;-69
2022/05/03 09:46:19;;;;;;;3.23;2.23;;;;;;;;;;20719691;28;20222;-69
2022/05/03 09:56:27;;;;;;;3.10;2.17;;;21.40;99.90;;;;;;20729828;28;20219;-70
2022/05/03 10:06:29;;;;;;;2.43;1.73;;;;;;;;;;20569171;28;20227;-69
2022/05/03 10:37:12;;;;;;;2.57;1.43;;;;;;;;;;21052797;28;20277;-67
2022/05/03 10:47:18;;;;;;;2.40;1.50;;;;;;;;;;20938240;28;20215;-68
2022/05/03 10:57:20;;;;;;;1.57;1.17;;;;;;;;;;20899881;28;20631;-68
2022/05/03 11:07:25;;;;;;;1.70;1.23;;;23.00;99.90;;;;;;20897973;28;20344;-68
2022/05/03 11:17:27;;;;;;;2.38;1.30;;;;;;;;;;20863936;28;20266;-67
2022/05/03 11:27:29;;;;;;;1.30;1.00;;;;;;;;;;20896483;28;20264;-66
2022/05/03 11:37:32;;;;;;;1.60;1.10;;;;;;;;;;20944667;28;20285;-67
2022/05/03 11:47:35;;;;;;;2.15;1.48;;;23.70;99.90;;;;;;20942668;28;20246;-67
2022/05/03 11:57:42;;;;;;;2.72;1.38;;;;;;;;;;20928344;28;20266;-69
2022/05/03 12:07:46;;;;;;;1.92;1.20;;;;;;;;;;20929722;28;20255;-68
2022/05/03 12:18:33;;;;;;;3.17;1.30;;;24.10;99.90;;;;;;20927822;28;20272;-68
2022/05/03 12:28:40;;;;;;;2.53;1.40;;;24.40;99.90;;;;;;20826994;28;20572;-68
2022/05/03 12:38:49;;;;;;;3.33;1.23;;;24.60;99.90;;;;;;20955573;28;20246;-68
2022/05/03 12:48:51;;;;;;;2.00;1.40;;;;;;;;;;20937759;28;20217;-68
2022/05/03 12:58:54;;;;;;;2.13;1.02;;;;;;;;;;20936186;28;20277;-68
2022/05/03 13:08:56;;;;;;;1.55;1.23;;;;;;;;;;20951294;28;20244;-68
2022/05/03 13:18:58;;;;;;;1.58;1.23;;;;;;;;;;20933029;28;20272;-68
2022/05/03 13:29:05;;;;;;;1.90;1.30;;;23.90;99.90;;;;;;20931819;28;20219;-67
2022/05/03 13:49:27;;;;;;;1.98;1.48;;;;;;;;;;20947767;28;20279;-67
2022/05/03 13:59:31;;;;;;;1.60;1.13;;;;;;;;;;20935377;28;20262;-67
2022/05/03 14:09:33;;;;;;;2.10;0.98;;;;;;;;;;20951692;28;20697;-67
2022/05/03 14:19:35;;;;;;;1.45;0.82;;;;;;;;;;20934970;28;20209;-68
2022/05/03 14:29:37;;;;;;;3.78;1.40;;;;;;;;;;20920946;28;20217;-68
2022/05/03 14:39:38;;;;;;;1.52;0.93;;;;;;;;;;20928753;28;20592;-67
2022/05/03 14:49:41;;;;;;;1.63;1.20;;;;;;;;;;20953429;28;20232;-67
2022/05/03 15:10:03;;;;;;;2.65;1.10;;;22.00;99.90;;;;;;20942922;28;20223;-67
2022/05/03 15:20:05;;;;;;;3.30;1.17;;;22.00;99.90;;;;;;20958867;28;20271;-67
2022/05/03 15:30:07;;;;;;;1.97;1.00;;;;;;;;;;20956533;28;20225;-68
2022/05/03 15:40:13;;;;;;;2.13;1.05;;;21.80;99.90;;;;;;20953331;28;20252;-73
2022/05/03 15:50:16;;;;;;;0.57;0.47;;;21.80;99.90;;;;;;20938719;28;20752;-73
2022/05/03 16:00:19;;;;;;;0.93;0.55;;;;;;;;;;20954324;28;20226;-66
2022/05/03 16:10:20;;;;;;;1.05;0.60;;;;;;;;;;20934750;28;20281;-67
2022/05/03 16:20:22;;;;;;;2.30;0.70;;;;;;;;;;20936706;28;20215;-67
2022/05/03 16:30:25;;;;;;;0.80;0.50;;;;;;;;;;20911996;22;20250;-84
2022/05/03 16:50:50;;;;;;;1.00;0.60;;;;;;;;;;20617845;28;20227;-82
2022/05/03 17:00:52;;;;;;;0.70;0.50;;;;;;;;;;20601259;28;20280;-83
2022/05/03 17:10:55;;;;;;;1.13;0.65;;;;;;;;;;20529720;28;20227;-83
2022/05/03 17:20:57;;;;;;;0.90;0.60;;;;;;;;;;20611935;28;20219;-83
2022/05/03 17:31:00;;;;;;;1.60;1.20;;;;;;;;;;20562326;28;20779;-83
2022/05/03 17:41:04;;;;;;;2.28;1.48;;;;;;;;;;20615366;28;20225;-83
2022/05/03 17:51:07;;;;;;;2.53;1.53;;;;;;;;;;20612406;28;20207;-82
2022/05/03 18:01:09;;;;;;;0.90;0.70;;;;;;;;;;20572183;28;20627;-83
2022/05/03 18:11:12;;;;;;;3.60;0.90;;;21.30;99.90;;;;;;20752368;28;20621;-82
2022/05/03 18:21:15;;;;;;;0.90;0.67;;;;;;;;;;20963016;28;20555;-83
2022/05/03 18:31:20;;;;;;;0.83;0.63;;;;;;;;;;20676927;28;20872;-82
2022/05/03 18:41:21;;;;;;;1.20;0.70;;;;;;;;;;20729937;28;20220;-83
2022/05/03 18:51:23;;;;;;;1.70;1.47;;;;;;;;;;20611239;28;20281;-83
2022/05/03 19:01:25;;;;;;;1.27;0.83;;;;;;;;;;20610168;28;20232;-83
2022/05/03 19:11:27;;;;;;;1.37;0.90;;;;;;;;;;20623036;28;20263;-84
2022/05/03 19:21:29;;;;;;;1.03;0.70;;;;;;;;;;20626626;28;20215;-83
2022/05/03 19:31:31;;;;;;;1.30;0.87;;;;;;;;;;20641195;28;20227;-82
2022/05/03 19:41:34;;;;;;;1.20;0.80;;;;;;;;;;20537688;28;20257;-83
2022/05/03 19:51:36;;;;;;;2.33;0.80;;;;;;;;;;20617993;28;20752;-81
2022/05/03 20:01:38;;;;;;;1.03;0.70;;;;;;;;;;20809070;28;20257;-83
2022/05/03 20:11:45;;;;;;;1.13;0.73;;;;;;;;;;20599409;28;20798;-82
2022/05/03 20:21:48;;;;;;;1.43;1.00;;;;;;;;;;20638227;28;20590;-82
2022/05/03 20:31:50;;;;;;;1.37;1.00;;;;;;;;;;20967813;28;20236;-82
2022/05/03 20:41:52;;;;;;;2.00;1.40;;;;;;;;;;20933859;28;20218;-82
2022/05/03 20:51:54;;;;;;;1.93;1.10;;;20.90;99.90;;;;;;20933910;28;20217;-81
2022/05/03 21:01:56;;;;;;;8.10;3.97;;;;;;;;;;20950189;28;20239;-81
2022/05/03 21:11:57;;;;;;;2.27;1.40;;;;;;;;;;20932508;28;20211;-82
2022/05/03 21:22:00;;;;;;;2.10;1.30;;;;;;;;;;20965383;28;20272;-82
2022/05/03 21:32:01;;;;;;;1.17;0.80;;;;;;;;;;20933855;28;20219;-82
2022/05/03 21:42:03;;;;;;;1.67;1.00;;;;;;;;;;20981863;28;20288;-82
2022/05/03 21:52:05;;;;;;;2.30;1.40;;;;;;;;;;20962483;28;20789;-82
2022/05/03 22:02:07;;;;;;;1.60;0.93;;;;;;;;;;20963925;28;20227;-82
2022/05/03 22:12:09;;;;;;;1.97;1.30;;;;;;;;;;20616846;28;20760;-83
2022/05/03 22:22:10;;;;;;;3.80;1.50;;;;;;;;;;20578109;28;20277;-81
2022/05/03 22:32:12;;;;;;;2.73;1.60;;;;;;;;;;20484403;28;20234;-82
2022/05/03 22:42:14;;;;;;;1.73;1.40;;;;;;;;;;20956357;28;20245;-82
2022/05/03 22:52:16;;;;;;;2.23;1.60;;;;;;;;;;20953789;28;20219;-82
2022/05/03 23:02:17;;;;;;;3.07;1.80;;;;;;;;;;20955309;28;20284;-82
2022/05/03 23:12:19;;;;;;;2.70;1.77;;;;;;;;;;20967750;28;20786;-82
2022/05/03 23:22:21;;;;;;;2.23;1.80;;;;;;;;;;20951057;28;20218;-82
2022/05/03 23:32:25;;;;;;;2.87;1.90;;;18.70;99.90;;;;;;20950673;28;20604;-83
2022/05/03 23:42:26;;;;;;;2.77;1.93;;;;;;;;;;20978422;28;20217;-83
2022/05/03 23:52:28;;;;;;;4.00;2.50;;;;;;;;;;20964520;28;20217;-82
